Terminal Aerodrome Forecast
Issued by NWS Duluth, MN

Home | Current Version | Previous Version | Text Only | Print | Product List | Glossary On
Versions: 1 2 3 4 5 6 7 8 9 10 11 12 13 14 15 16 17 18 19 20 21 22 23 24 25 26 27
000
FTUS43 KDLH 272300
TAFDLH
TAF
KDLH 272337Z 2800/2824 16007KT P6SM OVC010
      TEMPO 2801/2804 OVC009
     FM280400 16007KT P6SM OVC009
     FM281500 14008KT 5SM BR OVC006=

USA.gov is the U.S. government's official web portal to all federal, state and local government web resources and services.